createdAt,value
2023-04-23T00:01:17.856Z,98375.47
2023-04-23T00:03:45.488Z,98370.28
2023-04-23T00:06:13.078Z,98372.81
2023-04-23T00:08:41.280Z,98364.09
2023-04-23T00:11:09.436Z,98363.94
2023-04-23T00:13:36.994Z,98360.19
2023-04-23T00:16:04.291Z,98357.72
2023-04-23T00:18:31.155Z,98365.53
2023-04-23T00:20:58.122Z,98361.63
2023-04-23T00:23:25.294Z,98363.50
2023-04-23T00:25:52.057Z,98352.44
2023-04-23T00:28:21.520Z,98354.00
2023-04-23T00:30:49.041Z,98353.84
2023-04-23T00:33:16.051Z,98348.53
2023-04-23T00:35:42.798Z,98350.47
2023-04-23T00:38:09.646Z,98350.22
2023-04-23T00:40:36.496Z,98348.19
2023-04-23T00:43:07.268Z,98347.03
2023-04-23T00:45:34.340Z,98356.13
2023-04-23T00:48:02.906Z,98353.94
2023-04-23T00:50:29.750Z,98351.19
2023-04-23T00:52:56.684Z,98358.03
2023-04-23T00:55:23.535Z,98351.13
2023-04-23T00:57:50.990Z,98348.59
2023-04-23T01:00:18.886Z,98352.00
2023-04-23T01:02:47.554Z,98346.03
2023-04-23T01:05:16.038Z,98341.72
2023-04-23T01:07:44.607Z,98347.34
2023-04-23T01:10:12.777Z,98342.81
2023-04-23T01:12:40.014Z,98337.59
2023-04-23T01:15:07.927Z,98349.94
2023-04-23T01:17:34.816Z,98343.34
2023-04-23T01:20:01.577Z,98340.19
2023-04-23T01:22:28.645Z,98345.56
2023-04-23T01:24:55.811Z,98346.19
2023-04-23T01:27:24.892Z,98348.81
2023-04-23T01:29:52.101Z,98350.84
2023-04-23T01:32:19.428Z,98355.25
2023-04-23T01:34:48.138Z,98348.09
2023-04-23T01:37:17.395Z,98351.91
2023-04-23T01:39:44.482Z,98358.22
2023-04-23T01:42:11.553Z,98358.44
2023-04-23T01:44:38.647Z,98357.63
2023-04-23T01:47:07.243Z,98355.59
2023-04-23T01:49:34.334Z,98366.75
2023-04-23T01:52:04.215Z,98363.59
2023-04-23T01:54:30.942Z,98365.00
2023-04-23T01:56:59.008Z,98357.63
2023-04-23T01:59:26.577Z,98362.97
2023-04-23T02:01:53.639Z,98368.28
2023-04-23T02:04:22.368Z,98361.06
2023-04-23T02:06:52.125Z,98371.66
2023-04-23T02:09:18.856Z,98372.09
2023-04-23T02:11:46.842Z,98366.94
2023-04-23T02:14:13.866Z,98370.25
2023-04-23T02:16:40.544Z,98369.06
2023-04-23T02:19:08.235Z,98366.44
2023-04-23T02:21:34.926Z,98372.09
2023-04-23T02:24:01.756Z,98368.34
2023-04-23T02:26:29.219Z,98361.28
2023-04-23T02:28:56.062Z,98364.56
2023-04-23T02:31:23.181Z,98369.22
2023-04-23T02:33:50.156Z,98367.56
2023-04-23T02:36:17.234Z,98374.16
2023-04-23T02:38:45.644Z,98378.56
2023-04-23T02:41:12.434Z,98383.47
2023-04-23T02:43:39.199Z,98379.44
2023-04-23T02:46:09.649Z,98385.59
2023-04-23T02:48:41.453Z,98382.09
2023-04-23T02:51:11.117Z,98385.78
2023-04-23T02:53:37.933Z,98392.31
2023-04-23T02:56:04.935Z,98392.59
2023-04-23T02:58:32.041Z,98394.25
2023-04-23T03:01:00.875Z,98391.97
2023-04-23T03:03:32.205Z,98396.19
2023-04-23T03:06:02.215Z,98396.22
2023-04-23T03:08:29.115Z,98392.34
2023-04-23T03:10:56.046Z,98403.13
2023-04-23T03:13:23.145Z,98396.66
2023-04-23T03:15:50.736Z,98406.31
2023-04-23T03:18:18.208Z,98404.25
2023-04-23T03:20:48.125Z,98403.19
2023-04-23T03:23:15.480Z,98405.47
2023-04-23T03:25:42.504Z,98407.25
2023-04-23T03:28:09.226Z,98409.59
2023-04-23T03:30:36.128Z,98402.81
2023-04-23T03:33:03.390Z,98409.66
2023-04-23T03:35:30.730Z,98415.22
2023-04-23T03:38:00.807Z,98420.69
2023-04-23T03:40:27.602Z,98418.19
2023-04-23T03:42:58.397Z,98407.09
2023-04-23T03:45:46.158Z,98401.81
2023-04-23T03:48:15.081Z,98413.75
2023-04-23T03:50:42.953Z,98406.28
2023-04-23T03:53:23.132Z,98404.59
2023-04-23T03:56:08.393Z,98408.19
2023-04-23T03:58:45.175Z,98416.56
2023-04-23T04:01:11.816Z,98413.06
2023-04-23T04:03:38.735Z,98416.59
2023-04-23T04:06:05.707Z,98412.63
2023-04-23T04:08:32.412Z,98416.78
2023-04-23T04:11:00.412Z,98408.88
2023-04-23T04:13:27.366Z,98407.28
2023-04-23T04:15:54.108Z,98413.19
2023-04-23T04:18:21.317Z,98416.47
2023-04-23T04:20:48.132Z,98419.59
2023-04-23T04:23:16.285Z,98420.66
2023-04-23T04:25:43.098Z,98417.22
2023-04-23T04:28:11.854Z,98418.66
2023-04-23T04:30:39.534Z,98416.16
2023-04-23T04:33:06.326Z,98413.00
2023-04-23T04:35:33.022Z,98416.25
2023-04-23T04:37:59.956Z,98414.69
2023-04-23T04:40:28.568Z,98417.59
2023-04-23T04:42:55.278Z,98427.94
2023-04-23T04:45:22.060Z,98415.38
2023-04-23T04:47:48.775Z,98424.97
2023-04-23T04:50:15.655Z,98417.78
2023-04-23T04:52:42.683Z,98418.81
2023-04-23T04:55:09.839Z,98424.44
2023-04-23T04:57:36.648Z,98428.75
2023-04-23T05:00:23.032Z,98432.16
2023-04-23T05:02:53.244Z,98431.97
2023-04-23T05:05:21.932Z,98428.47
2023-04-23T05:07:48.830Z,98426.97
2023-04-23T05:10:16.452Z,98426.88
2023-04-23T05:12:43.814Z,98429.69
2023-04-23T05:15:13.409Z,98428.44
2023-04-23T05:17:41.600Z,98428.69
2023-04-23T05:20:10.971Z,98432.22
2023-04-23T05:22:38.796Z,98442.06
2023-04-23T05:25:07.243Z,98446.97
2023-04-23T05:27:34.754Z,98442.22
2023-04-23T05:30:08.029Z,98435.84
2023-04-23T05:32:35.632Z,98440.97
2023-04-23T05:35:03.807Z,98430.06
2023-04-23T05:37:31.033Z,98441.81
2023-04-23T05:39:58.390Z,98437.31
2023-04-23T05:42:25.499Z,98436.56
2023-04-23T05:44:52.174Z,98444.91
2023-04-23T05:47:19.000Z,98450.50
2023-04-23T05:49:45.724Z,98441.72
2023-04-23T05:52:12.563Z,98438.34
2023-04-23T05:54:39.517Z,98441.72
2023-04-23T05:57:06.686Z,98445.69
2023-04-23T05:59:33.906Z,98446.59
2023-04-23T06:02:00.810Z,98448.91
2023-04-23T06:04:27.784Z,98452.69
2023-04-23T06:06:54.769Z,98454.88
2023-04-23T06:09:21.549Z,98461.00
2023-04-23T06:11:50.550Z,98465.91
2023-04-23T06:14:17.315Z,98467.44
2023-04-23T06:16:44.054Z,98468.69
2023-04-23T06:19:11.872Z,98461.88
2023-04-23T06:21:39.190Z,98452.91
2023-04-23T06:24:07.485Z,98450.50
2023-04-23T06:26:35.011Z,98457.09
2023-04-23T06:29:09.810Z,98462.06
2023-04-23T06:31:43.121Z,98444.88
2023-04-23T06:34:09.895Z,98448.53
2023-04-23T06:36:36.598Z,98441.63
2023-04-23T06:39:03.494Z,98443.78
2023-04-23T06:41:30.508Z,98445.63
2023-04-23T06:44:08.526Z,98451.19
2023-04-23T06:46:39.349Z,98447.50
2023-04-23T06:49:06.070Z,98441.53
2023-04-23T06:51:32.809Z,98440.66
2023-04-23T06:53:59.625Z,98444.66
2023-04-23T06:56:27.484Z,98444.84
2023-04-23T06:58:54.246Z,98446.28
2023-04-23T07:01:22.340Z,98453.69
2023-04-23T07:03:51.546Z,98445.06
2023-04-23T07:06:18.519Z,98439.69
2023-04-23T07:08:45.360Z,98432.53
2023-04-23T07:11:12.217Z,98426.66
2023-04-23T07:14:00.700Z,98427.13
2023-04-23T07:16:29.904Z,98424.91
2023-04-23T07:18:56.909Z,98423.91
2023-04-23T07:21:23.752Z,98431.13
2023-04-23T07:23:50.940Z,98432.63
2023-04-23T07:26:17.784Z,98439.03
2023-04-23T07:28:46.462Z,98434.84
2023-04-23T07:31:13.300Z,98429.63
2023-04-23T07:33:41.517Z,98421.53
2023-04-23T07:36:08.332Z,98413.69
2023-04-23T07:38:34.998Z,98424.53
2023-04-23T07:41:02.279Z,98419.78
2023-04-23T07:43:29.045Z,98424.00
2023-04-23T07:45:55.698Z,98428.72
2023-04-23T07:48:22.437Z,98422.78
2023-04-23T07:50:51.243Z,98418.63
2023-04-23T07:53:18.892Z,98417.50
2023-04-23T07:55:45.950Z,98411.31
2023-04-23T07:58:12.922Z,98421.31
2023-04-23T08:00:39.895Z,98413.34
2023-04-23T08:03:06.807Z,98420.31
2023-04-23T08:05:33.752Z,98423.75
2023-04-23T08:08:00.493Z,98433.91
2023-04-23T08:10:27.181Z,98431.06
2023-04-23T08:12:53.920Z,98438.16
2023-04-23T08:15:21.125Z,98440.84
2023-04-23T08:17:48.010Z,98423.13
2023-04-23T08:20:15.123Z,98429.63
2023-04-23T08:22:42.241Z,98424.09
2023-04-23T08:25:09.695Z,98414.69
2023-04-23T08:27:37.036Z,98420.34
2023-04-23T08:30:04.410Z,98409.28
2023-04-23T08:32:31.292Z,98416.47
2023-04-23T08:34:58.895Z,98411.28
2023-04-23T08:37:30.724Z,98407.84
2023-04-23T08:39:58.574Z,98395.16
2023-04-23T08:42:37.794Z,98393.88
2023-04-23T08:45:05.947Z,98388.31
2023-04-23T08:47:33.740Z,98397.50
2023-04-23T08:50:01.519Z,98394.34
2023-04-23T08:52:36.352Z,98396.56
2023-04-23T08:55:37.502Z,98397.03
2023-04-23T08:58:06.443Z,98397.69
2023-04-23T09:00:36.151Z,98393.63
2023-04-23T09:03:03.939Z,98392.38
2023-04-23T09:06:10.158Z,98389.91
2023-04-23T09:08:38.147Z,98393.44
2023-04-23T09:11:05.354Z,98385.56
2023-04-23T09:13:33.929Z,98383.72
2023-04-23T09:16:00.876Z,98373.97
2023-04-23T09:18:27.824Z,98381.06
2023-04-23T09:20:54.799Z,98375.81
2023-04-23T09:23:23.447Z,98364.41
2023-04-23T09:25:50.461Z,98363.19
2023-04-23T09:28:17.391Z,98358.16
2023-04-23T09:30:45.769Z,98363.13
2023-04-23T09:33:12.969Z,98368.94
2023-04-23T09:35:42.343Z,98358.66
2023-04-23T09:38:10.763Z,98357.31
2023-04-23T09:40:39.019Z,98362.38
2023-04-23T09:43:07.364Z,98352.84
2023-04-23T09:45:35.998Z,98346.38
2023-04-23T09:48:03.097Z,98345.28
2023-04-23T09:50:35.729Z,98355.84
2023-04-23T09:53:05.271Z,98353.50
2023-04-23T09:55:42.998Z,98349.38
2023-04-23T09:58:15.815Z,98345.25
2023-04-23T10:00:45.539Z,98336.34
2023-04-23T10:03:15.485Z,98333.16
2023-04-23T10:06:01.884Z,98332.44
2023-04-23T10:08:41.386Z,98326.44
2023-04-23T10:14:12.374Z,98321.38
2023-04-23T10:16:49.535Z,98326.59
2023-04-23T10:19:21.445Z,98322.53
2023-04-23T10:22:18.515Z,98321.13
2023-04-23T10:25:46.628Z,98325.19
2023-04-23T10:28:28.713Z,98323.69
2023-04-23T10:34:13.583Z,98315.56
2023-04-23T10:36:42.097Z,98317.94
2023-04-23T10:41:48.757Z,98301.69
2023-04-23T10:44:50.474Z,98312.34
2023-04-23T10:47:24.873Z,98307.59
2023-04-23T10:49:53.128Z,98292.00
2023-04-23T10:52:25.157Z,98294.50
2023-04-23T10:55:03.230Z,98296.00
2023-04-23T10:58:11.005Z,98290.41
2023-04-23T11:00:47.076Z,98286.66
2023-04-23T11:03:47.677Z,98281.66
2023-04-23T11:06:20.991Z,98276.31
2023-04-23T11:08:55.422Z,98278.00
2023-04-23T11:11:41.542Z,98271.25
2023-04-23T11:14:15.955Z,98264.13
2023-04-23T11:16:43.111Z,98267.59
2023-04-23T11:19:12.683Z,98273.78
2023-04-23T11:21:59.012Z,98278.56
2023-04-23T11:24:30.797Z,98264.47
2023-04-23T11:26:59.123Z,98265.38
2023-04-23T11:29:27.672Z,98260.47
2023-04-23T11:34:26.445Z,98261.69
2023-04-23T11:36:54.866Z,98257.44
2023-04-23T11:39:24.303Z,98260.25
2023-04-23T11:41:52.384Z,98256.25
2023-04-23T11:44:23.636Z,98249.66
2023-04-23T11:46:51.026Z,98248.69
2023-04-23T11:49:19.416Z,98243.00
2023-04-23T11:51:46.848Z,98235.88
2023-04-23T11:54:14.910Z,98226.53
2023-04-23T11:56:42.432Z,98229.53
2023-04-23T11:59:12.611Z,98224.28
2023-04-23T12:01:42.744Z,98217.03
2023-04-23T12:04:20.681Z,98225.88
2023-04-23T12:06:49.684Z,98216.91
2023-04-23T12:09:29.597Z,98218.56
2023-04-23T12:11:58.588Z,98207.88
2023-04-23T12:14:31.090Z,98203.50
2023-04-23T12:16:59.468Z,98195.78
2023-04-23T12:19:29.304Z,98183.53
2023-04-23T12:22:01.560Z,98183.28
2023-04-23T12:24:30.518Z,98188.09
2023-04-23T12:27:00.779Z,98180.09
2023-04-23T12:29:30.435Z,98176.63
2023-04-23T12:32:01.174Z,98175.03
2023-04-23T12:34:28.023Z,98175.19
2023-04-23T12:36:58.978Z,98178.84
2023-04-23T12:39:30.734Z,98165.47
2023-04-23T12:42:00.662Z,98172.00
2023-04-23T12:44:27.638Z,98162.78
2023-04-23T12:46:57.716Z,98166.31
2023-04-23T12:49:27.215Z,98164.94
2023-04-23T12:52:01.398Z,98163.41
2023-04-23T12:54:31.306Z,98158.41
2023-04-23T12:56:59.753Z,98161.47
2023-04-23T12:59:26.685Z,98153.66
2023-04-23T13:01:53.886Z,98150.56
2023-04-23T13:04:21.149Z,98145.91
2023-04-23T13:06:48.613Z,98137.47
2023-04-23T13:09:16.508Z,98134.13
2023-04-23T13:11:43.478Z,98124.81
2023-04-23T13:14:10.416Z,98122.31
2023-04-23T13:16:37.872Z,98125.53
2023-04-23T13:19:05.185Z,98110.72
2023-04-23T13:21:31.897Z,98101.41
2023-04-23T13:23:58.757Z,98097.13
2023-04-23T13:26:25.811Z,98086.81
2023-04-23T13:28:52.593Z,98074.97
2023-04-23T13:31:19.540Z,98073.88
2023-04-23T13:33:46.364Z,98067.34
2023-04-23T13:36:13.287Z,98057.09
2023-04-23T13:38:40.174Z,98052.25
2023-04-23T13:41:07.013Z,98043.09
2023-04-23T13:43:33.973Z,98033.28
2023-04-23T13:46:01.321Z,98039.44
2023-04-23T13:48:36.823Z,98027.53
2023-04-23T13:51:05.345Z,98018.13
2023-04-23T13:53:37.616Z,98016.97
2023-04-23T13:56:04.460Z,98020.53
2023-04-23T13:58:31.198Z,98006.38
2023-04-23T14:00:57.970Z,98018.59
2023-04-23T14:03:24.758Z,97998.88
2023-04-23T14:05:51.565Z,98006.31
2023-04-23T14:08:18.266Z,98017.59
2023-04-23T14:10:45.111Z,98009.34
2023-04-23T14:13:11.924Z,98017.38
2023-04-23T14:15:38.716Z,98016.25
2023-04-23T14:18:05.913Z,98002.69
2023-04-23T14:20:32.701Z,97997.81
2023-04-23T14:23:26.006Z,97993.47
2023-04-23T14:25:58.500Z,97993.97
2023-04-23T14:28:32.943Z,97998.88
2023-04-23T14:31:01.556Z,97984.34
2023-04-23T14:33:28.535Z,97977.88
2023-04-23T14:35:55.333Z,97978.03
2023-04-23T14:38:22.574Z,97965.97
2023-04-23T14:40:49.419Z,97970.47
2023-04-23T14:43:16.747Z,97975.84
2023-04-23T14:45:44.030Z,97970.66
2023-04-23T14:48:11.020Z,97968.13
2023-04-23T14:50:37.887Z,97959.06
2023-04-23T14:53:07.223Z,97963.19
2023-04-23T14:55:34.281Z,97955.50
2023-04-23T14:58:01.560Z,97956.19
2023-04-23T15:00:28.468Z,97959.59
2023-04-23T15:02:55.652Z,97959.91
2023-04-23T15:05:22.569Z,97954.66
2023-04-23T15:07:51.441Z,97945.44
2023-04-23T15:10:19.392Z,97948.16
2023-04-23T15:13:01.823Z,97942.53
2023-04-23T15:15:55.455Z,97940.31
2023-04-23T15:18:22.285Z,97934.31
2023-04-23T15:20:49.307Z,97932.50
2023-04-23T15:23:16.043Z,97931.13
2023-04-23T15:25:42.838Z,97926.28
2023-04-23T15:28:09.678Z,97927.03
2023-04-23T15:30:36.371Z,97915.28
2023-04-23T15:33:03.223Z,97915.22
2023-04-23T15:35:31.476Z,97923.75
2023-04-23T15:37:58.338Z,97910.00
2023-04-23T15:40:26.406Z,97911.03
2023-04-23T15:42:53.620Z,97910.28
2023-04-23T15:45:20.586Z,97906.19
2023-04-23T15:47:47.596Z,97911.31
2023-04-23T15:50:18.877Z,97902.50
2023-04-23T15:52:45.588Z,97899.34
2023-04-23T15:55:12.625Z,97902.13
2023-04-23T15:57:39.408Z,97908.44
2023-04-23T16:00:07.157Z,97902.31
2023-04-23T16:02:38.902Z,97902.69
2023-04-23T16:05:05.969Z,97896.09
2023-04-23T16:07:32.824Z,97898.31
2023-04-23T16:09:59.694Z,97891.47
2023-04-23T16:12:27.219Z,97893.25
2023-04-23T16:14:54.384Z,97893.72
2023-04-23T16:17:21.085Z,97892.56
2023-04-23T16:19:48.352Z,97890.19
2023-04-23T16:22:16.287Z,97886.50
2023-04-23T16:24:43.136Z,97870.56
2023-04-23T16:27:11.130Z,97871.44
2023-04-23T16:29:38.724Z,97875.28
2023-04-23T16:32:07.123Z,97869.97
2023-04-23T16:34:34.165Z,97864.56
2023-04-23T16:37:01.049Z,97862.16
2023-04-23T16:39:27.930Z,97865.75
2023-04-23T16:41:57.039Z,97855.84
2023-04-23T16:44:23.974Z,97849.72
2023-04-23T16:46:51.908Z,97852.22
2023-04-23T16:49:44.726Z,97847.50
2023-04-23T16:52:11.687Z,97848.34
2023-04-23T16:54:38.481Z,97842.75
2023-04-23T16:57:07.420Z,97843.44
2023-04-23T16:59:34.330Z,97846.13
2023-04-23T17:02:03.505Z,97835.38
2023-04-23T17:04:33.517Z,97825.97
2023-04-23T17:07:00.403Z,97830.69
2023-04-23T17:09:27.348Z,97826.97
2023-04-23T17:11:54.143Z,97826.41
2023-04-23T17:14:20.893Z,97831.81
2023-04-23T17:16:47.909Z,97830.22
2023-04-23T17:19:14.719Z,97822.63
2023-04-23T17:21:41.712Z,97829.06
2023-04-23T17:24:10.888Z,97826.25
2023-04-23T17:26:39.671Z,97824.63
2023-04-23T17:29:07.011Z,97822.97
2023-04-23T17:31:35.414Z,97824.63
2023-04-23T17:34:03.668Z,97832.81
2023-04-23T17:36:32.610Z,97839.16
2023-04-23T17:39:00.462Z,97850.78
2023-04-23T17:41:29.811Z,97879.63
2023-04-23T17:43:56.559Z,97908.78
2023-04-23T17:46:23.480Z,97909.16
2023-04-23T17:48:50.380Z,97926.34
2023-04-23T17:51:17.891Z,97932.25
2023-04-23T17:53:48.747Z,97942.59
2023-04-23T17:56:16.470Z,97945.88
2023-04-23T17:58:43.776Z,97964.16
2023-04-23T18:01:11.139Z,97959.41
2023-04-23T18:03:38.409Z,97953.81
2023-04-23T18:06:05.965Z,97968.09
2023-04-23T18:08:32.740Z,97978.91
2023-04-23T18:11:00.029Z,97963.03
2023-04-23T18:13:27.048Z,97946.34
2023-04-23T18:15:53.791Z,97956.44
2023-04-23T18:18:22.088Z,97961.50
2023-04-23T18:20:49.298Z,97966.56
2023-04-23T18:23:16.486Z,97958.00
2023-04-23T18:25:43.205Z,97948.16
2023-04-23T18:28:10.028Z,97948.88
2023-04-23T18:30:38.086Z,97958.59
2023-04-23T18:37:03.408Z,97939.72
2023-04-23T18:39:32.465Z,97939.00
2023-04-23T18:41:59.550Z,97935.41
2023-04-23T18:44:27.166Z,97934.59
2023-04-23T18:46:53.982Z,97926.13
2023-04-23T18:49:29.992Z,97926.38
2023-04-23T18:51:56.989Z,97925.34
2023-04-23T18:54:25.592Z,97937.25
2023-04-23T18:56:53.499Z,97948.88
2023-04-23T18:59:20.345Z,97962.22
2023-04-23T19:01:48.236Z,97953.09
2023-04-23T19:04:15.390Z,97949.63
2023-04-23T19:06:42.785Z,97965.59
2023-04-23T19:09:10.979Z,97959.94
2023-04-23T19:11:38.300Z,97953.09
2023-04-23T19:14:05.348Z,97954.16
2023-04-23T19:16:32.340Z,97950.22
2023-04-23T19:18:59.370Z,97945.03
2023-04-23T19:21:28.741Z,97957.88
2023-04-23T19:23:59.573Z,97946.00
2023-04-23T19:26:29.686Z,97938.19
2023-04-23T19:28:56.581Z,97936.59
2023-04-23T19:31:23.487Z,97933.81
2023-04-23T19:33:50.770Z,97932.00
2023-04-23T19:36:17.672Z,97923.38
2023-04-23T19:38:44.631Z,97927.38
2023-04-23T19:41:11.671Z,97922.38
2023-04-23T19:43:38.978Z,97917.97
2023-04-23T19:47:09.210Z,97919.91
2023-04-23T19:49:36.116Z,97912.09
2023-04-23T19:52:03.881Z,97906.03
2023-04-23T19:54:30.715Z,97909.94
2023-04-23T19:56:57.547Z,97905.13
2023-04-23T19:59:24.392Z,97912.81
2023-04-23T20:01:51.621Z,97924.03
2023-04-23T20:04:20.911Z,97935.03
2023-04-23T20:06:47.915Z,97932.88
2023-04-23T20:09:21.900Z,97928.69
2023-04-23T20:11:48.734Z,97938.56
2023-04-23T20:14:15.638Z,97943.69
2023-04-23T20:16:42.533Z,97945.63
2023-04-23T20:19:20.730Z,97935.44
2023-04-23T20:21:47.571Z,97941.69
2023-04-23T20:24:14.643Z,97939.00
2023-04-23T20:26:42.229Z,97942.28
2023-04-23T20:29:09.397Z,97941.44
2023-04-23T20:31:36.654Z,97938.75
2023-04-23T20:34:03.927Z,97934.13
2023-04-23T20:36:39.272Z,97938.34
2023-04-23T20:39:06.038Z,97936.81
2023-04-23T20:41:36.760Z,97942.56
2023-04-23T20:44:09.235Z,97934.41
2023-04-23T20:46:36.986Z,97932.69
2023-04-23T20:49:04.548Z,97923.22
2023-04-23T20:51:34.684Z,97929.84
2023-04-23T20:54:02.284Z,97932.28
2023-04-23T20:56:29.928Z,97933.75
2023-04-23T20:59:00.096Z,97935.44
2023-04-23T21:01:27.182Z,97939.84
2023-04-23T21:03:54.424Z,97937.13
2023-04-23T21:06:22.224Z,97942.38
2023-04-23T21:08:49.354Z,97945.66
2023-04-23T21:11:18.371Z,97942.59
2023-04-23T21:13:46.686Z,97941.84
2023-04-23T21:16:13.804Z,97947.31
2023-04-23T21:18:42.452Z,97954.94
2023-04-23T21:21:09.206Z,97956.38
2023-04-23T21:23:36.261Z,97960.00
2023-04-23T21:26:03.474Z,97957.31
2023-04-23T21:28:31.788Z,97957.31
2023-04-23T21:31:06.676Z,97947.88
2023-04-23T21:33:33.461Z,97947.75
2023-04-23T21:36:00.239Z,97946.25
2023-04-23T21:38:27.001Z,97951.25
2023-04-23T21:40:53.982Z,97946.91
2023-04-23T21:43:20.788Z,97941.41
2023-04-23T21:45:47.494Z,97950.72
2023-04-23T21:48:15.139Z,97952.16
2023-04-23T21:50:42.503Z,97947.25
2023-04-23T21:53:09.863Z,97950.38
2023-04-23T21:55:36.727Z,97959.41
2023-04-23T21:58:16.358Z,97961.16
2023-04-23T22:00:45.086Z,97960.50
2023-04-23T22:03:13.375Z,97963.03
2023-04-23T22:05:45.741Z,97955.47
2023-04-23T22:08:12.837Z,97947.66
2023-04-23T22:10:43.252Z,97947.75
2023-04-23T22:13:11.339Z,97939.22
2023-04-23T22:15:38.491Z,97945.75
2023-04-23T22:18:05.629Z,97942.50
2023-04-23T22:20:32.643Z,97943.75
2023-04-23T22:22:59.467Z,97937.41
2023-04-23T22:25:26.233Z,97928.78
2023-04-23T22:27:52.943Z,97925.91
2023-04-23T22:30:19.767Z,97936.34
2023-04-23T22:32:46.636Z,97930.25
2023-04-23T22:35:13.461Z,97937.69
2023-04-23T22:37:40.418Z,97928.78
2023-04-23T22:40:10.495Z,97936.88
2023-04-23T22:42:37.820Z,97942.72
2023-04-23T22:45:06.126Z,97929.53
2023-04-23T22:47:33.101Z,97924.78
2023-04-23T22:49:59.889Z,97927.31
2023-04-23T22:52:27.199Z,97924.06
2023-04-23T22:54:55.120Z,97922.56
2023-04-23T22:57:22.004Z,97925.44
2023-04-23T22:59:49.252Z,97929.53
2023-04-23T23:02:16.666Z,97921.75
2023-04-23T23:04:43.509Z,97927.84
2023-04-23T23:07:10.653Z,97923.81
2023-04-23T23:09:37.434Z,97923.81
2023-04-23T23:12:04.876Z,97928.47
2023-04-23T23:14:31.992Z,97932.03
2023-04-23T23:16:59.079Z,97934.50
2023-04-23T23:19:27.236Z,97932.69
2023-04-23T23:21:54.203Z,97926.06
2023-04-23T23:24:22.325Z,97935.94
2023-04-23T23:26:50.434Z,97941.97
2023-04-23T23:29:17.219Z,97936.50
2023-04-23T23:31:44.284Z,97938.59
2023-04-23T23:34:11.373Z,97932.94
2023-04-23T23:37:16.526Z,97936.78
2023-04-23T23:39:43.540Z,97938.25
2023-04-23T23:42:10.867Z,97933.72
2023-04-23T23:44:37.647Z,97934.28
2023-04-23T23:47:04.698Z,97922.28
2023-04-23T23:49:31.634Z,97918.88
2023-04-23T23:51:58.460Z,97924.16
2023-04-23T23:54:25.155Z,97922.69
2023-04-23T23:56:52.039Z,97928.38
2023-04-23T23:59:18.835Z,97918.59
